createdAt,value
2023-05-09T00:01:14.270Z,8.41
2023-05-09T00:03:44.312Z,8.25
2023-05-09T00:06:13.972Z,8.18
2023-05-09T00:08:43.127Z,8.07
2023-05-09T00:11:11.558Z,8.07
2023-05-09T00:13:44.264Z,8.13
2023-05-09T00:16:16.106Z,8.15
2023-05-09T00:18:45.943Z,8.10
2023-05-09T00:21:17.112Z,8.05
2023-05-09T00:23:48.595Z,8.04
2023-05-09T00:26:18.975Z,7.93
2023-05-09T00:28:49.054Z,7.86
2023-05-09T00:31:22.657Z,7.86
2023-05-09T00:33:51.260Z,7.84
2023-05-09T00:36:19.728Z,7.86
2023-05-09T00:38:49.152Z,7.91
2023-05-09T00:41:17.459Z,7.84
2023-05-09T00:43:45.844Z,7.82
2023-05-09T00:46:14.278Z,7.75
2023-05-09T00:48:46.618Z,7.67
2023-05-09T00:51:18.374Z,7.55
2023-05-09T00:53:46.847Z,7.51
2023-05-09T00:56:16.296Z,7.51
2023-05-09T00:58:44.855Z,7.32
2023-05-09T01:01:15.336Z,7.24
2023-05-09T01:03:47.613Z,7.08
2023-05-09T01:06:25.457Z,6.86
2023-05-09T01:08:59.910Z,6.90
2023-05-09T01:11:32.976Z,6.86
2023-05-09T01:14:13.523Z,6.79
2023-05-09T01:16:47.235Z,6.83
2023-05-09T01:19:37.808Z,6.89
2023-05-09T01:22:10.380Z,6.99
2023-05-09T01:25:00.792Z,7.07
2023-05-09T01:27:44.708Z,7.07
2023-05-09T01:30:17.384Z,7.12
2023-05-09T01:32:50.940Z,7.12
2023-05-09T01:35:24.307Z,7.10
2023-05-09T01:37:56.065Z,7.14
2023-05-09T01:40:27.141Z,7.11
2023-05-09T01:43:05.465Z,7.11
2023-05-09T01:45:36.689Z,7.01
2023-05-09T01:48:06.984Z,6.96
2023-05-09T01:50:41.245Z,6.94
2023-05-09T01:53:13.531Z,6.99
2023-05-09T01:55:42.877Z,6.91
2023-05-09T01:58:16.148Z,6.90
2023-05-09T02:00:47.156Z,6.91
2023-05-09T02:03:16.904Z,6.94
2023-05-09T02:05:49.190Z,6.89
2023-05-09T02:08:22.074Z,6.87
2023-05-09T02:10:51.731Z,6.76
2023-05-09T02:13:20.378Z,6.75
2023-05-09T02:15:51.525Z,6.72
2023-05-09T02:18:19.805Z,6.70
2023-05-09T02:20:48.116Z,6.69
2023-05-09T02:23:17.468Z,6.62
2023-05-09T02:25:46.371Z,6.63
2023-05-09T02:28:17.336Z,6.66
2023-05-09T02:30:48.551Z,6.61
2023-05-09T02:33:19.509Z,6.57
2023-05-09T02:35:49.418Z,6.49
2023-05-09T02:38:54.032Z,6.50
2023-05-09T02:42:11.823Z,6.52
2023-05-09T02:44:40.107Z,6.48
2023-05-09T02:47:10.357Z,6.42
2023-05-09T02:49:40.052Z,6.39
2023-05-09T02:52:08.372Z,6.32
2023-05-09T02:54:37.870Z,6.26
2023-05-09T02:57:07.406Z,6.20
2023-05-09T02:59:35.800Z,6.10
2023-05-09T03:02:05.155Z,6.15
2023-05-09T03:04:36.616Z,6.13
2023-05-09T03:07:06.503Z,6.14
2023-05-09T03:09:36.258Z,6.11
2023-05-09T03:12:19.235Z,6.08
2023-05-09T03:14:49.517Z,6.07
2023-05-09T03:17:34.382Z,6.03
2023-05-09T03:20:04.511Z,6.01
2023-05-09T03:22:38.976Z,6.04
2023-05-09T03:25:13.280Z,6.05
2023-05-09T03:27:45.435Z,6.00
2023-05-09T03:30:17.534Z,5.95
2023-05-09T03:32:50.742Z,5.97
2023-05-09T03:35:28.497Z,5.91
2023-05-09T03:38:00.786Z,5.93
2023-05-09T03:40:30.163Z,5.94
2023-05-09T03:43:12.402Z,6.00
2023-05-09T03:45:48.856Z,6.07
2023-05-09T03:48:19.325Z,6.08
2023-05-09T03:50:55.847Z,6.14
2023-05-09T03:53:30.430Z,6.18
2023-05-09T03:56:05.237Z,6.29
2023-05-09T03:58:42.032Z,6.42
2023-05-09T04:01:13.577Z,6.50
2023-05-09T04:03:43.550Z,6.63
2023-05-09T04:06:15.475Z,6.76
2023-05-09T04:08:52.175Z,6.86
2023-05-09T04:11:28.678Z,7.04
2023-05-09T04:13:59.694Z,7.19
2023-05-09T04:16:36.037Z,7.32
2023-05-09T04:19:07.263Z,7.48
2023-05-09T04:21:53.650Z,7.62
2023-05-09T04:24:40.897Z,7.83
2023-05-09T04:27:10.430Z,8.03
2023-05-09T04:30:02.126Z,8.17
2023-05-09T04:32:30.690Z,8.32
2023-05-09T04:34:59.411Z,8.45
2023-05-09T04:37:34.062Z,8.53
2023-05-09T04:40:09.189Z,8.65
2023-05-09T04:43:13.058Z,8.82
2023-05-09T04:45:55.774Z,8.97
2023-05-09T04:48:25.211Z,9.04
2023-05-09T04:51:00.784Z,9.14
2023-05-09T04:53:29.789Z,9.39
2023-05-09T04:56:02.488Z,9.62
2023-05-09T04:58:38.713Z,9.82
2023-05-09T05:01:31.077Z,9.97
2023-05-09T05:05:10.274Z,9.99
2023-05-09T05:07:44.441Z,10.17
2023-05-09T05:10:18.338Z,10.37
2023-05-09T05:13:22.032Z,10.59
2023-05-09T05:15:58.600Z,10.67
2023-05-09T05:18:29.310Z,10.78
2023-05-09T05:20:57.700Z,10.86
2023-05-09T05:23:55.350Z,10.91
2023-05-09T05:30:41.275Z,10.95
2023-05-09T05:33:10.708Z,10.98
2023-05-09T05:35:45.255Z,11.12
2023-05-09T05:39:17.444Z,11.19
2023-05-09T05:41:52.087Z,11.40
2023-05-09T05:44:21.258Z,11.30
2023-05-09T05:46:53.097Z,11.36
2023-05-09T05:49:59.115Z,11.43
2023-05-09T05:52:37.080Z,11.55
2023-05-09T05:55:06.661Z,11.67
2023-05-09T05:57:41.928Z,11.68
2023-05-09T06:00:16.623Z,11.70
2023-05-09T06:02:54.574Z,11.79
2023-05-09T06:06:14.813Z,11.86
2023-05-09T06:09:00.791Z,11.86
2023-05-09T06:12:22.799Z,11.95
2023-05-09T06:14:54.551Z,12.02
2023-05-09T06:17:49.100Z,12.03
2023-05-09T06:20:44.123Z,12.08
2023-05-09T06:23:47.345Z,12.19
2023-05-09T06:26:42.341Z,12.16
2023-05-09T06:29:15.506Z,12.15
2023-05-09T06:31:55.055Z,12.08
2023-05-09T06:34:23.261Z,12.19
2023-05-09T06:36:53.325Z,12.36
2023-05-09T06:39:22.908Z,12.60
2023-05-09T06:41:59.301Z,12.60
2023-05-09T06:44:32.834Z,12.73
2023-05-09T06:47:21.564Z,12.75
2023-05-09T06:49:51.921Z,12.89
2023-05-09T06:52:22.860Z,12.89
2023-05-09T06:55:27.028Z,13.01
2023-05-09T06:58:57.055Z,13.04
2023-05-09T07:01:50.366Z,12.98
2023-05-09T07:04:22.466Z,12.98
2023-05-09T07:06:55.395Z,13.05
2023-05-09T07:09:29.113Z,13.12
2023-05-09T07:11:58.523Z,13.25
2023-05-09T07:14:27.963Z,13.40
2023-05-09T07:17:18.230Z,13.49
2023-05-09T07:19:48.645Z,13.47
2023-05-09T07:22:18.045Z,13.56
2023-05-09T07:24:47.908Z,13.54
2023-05-09T07:27:43.101Z,13.43
2023-05-09T07:30:16.727Z,13.54
2023-05-09T07:33:16.237Z,13.64
2023-05-09T07:35:46.760Z,13.81
2023-05-09T07:38:15.285Z,13.98
2023-05-09T07:40:49.799Z,14.01
2023-05-09T07:43:49.077Z,13.90
2023-05-09T07:47:28.667Z,14.04
2023-05-09T07:50:52.226Z,14.26
2023-05-09T07:53:21.530Z,14.35
2023-05-09T07:55:59.362Z,14.40
2023-05-09T07:58:28.761Z,14.46
2023-05-09T08:01:22.030Z,14.32
2023-05-09T08:03:56.391Z,14.56
2023-05-09T08:06:25.186Z,14.67
2023-05-09T08:08:58.246Z,14.77
2023-05-09T08:11:30.996Z,14.84
2023-05-09T08:13:59.342Z,15.00
2023-05-09T08:16:29.758Z,15.18
2023-05-09T08:19:52.900Z,15.21
2023-05-09T08:22:23.272Z,15.28
2023-05-09T08:25:06.541Z,15.25
2023-05-09T08:27:40.321Z,15.24
2023-05-09T08:30:13.727Z,15.22
2023-05-09T08:33:11.234Z,15.29
2023-05-09T08:35:43.601Z,15.41
2023-05-09T08:38:40.779Z,15.42
2023-05-09T08:41:37.302Z,15.58
2023-05-09T08:44:08.619Z,15.58
2023-05-09T08:46:53.549Z,15.60
2023-05-09T08:49:23.678Z,15.73
2023-05-09T08:52:19.756Z,15.85
2023-05-09T08:54:55.450Z,15.94
2023-05-09T08:57:49.770Z,15.86
2023-05-09T09:00:30.832Z,15.79
2023-05-09T09:03:04.097Z,16.11
2023-05-09T09:09:47.272Z,16.17
2023-05-09T09:12:44.841Z,15.90
2023-05-09T09:15:36.212Z,15.59
2023-05-09T09:18:58.948Z,16.04
2023-05-09T09:22:21.948Z,16.20
2023-05-09T09:25:22.262Z,16.40
2023-05-09T09:27:50.746Z,16.59
2023-05-09T09:30:20.615Z,16.76
2023-05-09T09:32:59.932Z,16.94
2023-05-09T09:35:28.181Z,16.92
2023-05-09T09:38:00.567Z,17.18
2023-05-09T09:40:29.852Z,17.49
2023-05-09T09:42:59.110Z,17.17
2023-05-09T09:46:19.658Z,17.23
2023-05-09T09:48:55.183Z,16.49
2023-05-09T09:51:44.031Z,16.21
2023-05-09T09:54:17.409Z,16.62
2023-05-09T09:56:46.952Z,17.04
2023-05-09T09:59:18.650Z,17.45
2023-05-09T10:01:57.878Z,17.03
2023-05-09T10:04:34.798Z,16.79
2023-05-09T10:07:06.230Z,16.71
2023-05-09T10:09:49.590Z,16.93
2023-05-09T10:12:23.709Z,17.18
2023-05-09T10:14:55.100Z,17.44
2023-05-09T10:17:26.265Z,17.42
2023-05-09T10:20:05.892Z,17.07
2023-05-09T10:22:37.121Z,16.73
2023-05-09T10:25:11.049Z,16.65
2023-05-09T10:27:45.934Z,16.79
2023-05-09T10:30:30.306Z,17.35
2023-05-09T10:33:10.488Z,17.65
2023-05-09T10:35:44.549Z,17.58
2023-05-09T10:38:15.844Z,17.42
2023-05-09T10:40:55.714Z,17.74
2023-05-09T10:43:27.387Z,18.17
2023-05-09T10:46:04.129Z,18.47
2023-05-09T10:49:23.608Z,18.91
2023-05-09T10:51:54.294Z,18.94
2023-05-09T10:58:42.145Z,19.15
2023-05-09T11:01:39.428Z,19.07
2023-05-09T11:04:18.608Z,19.24
2023-05-09T11:07:37.658Z,19.22
2023-05-09T11:11:09.197Z,18.34
2023-05-09T11:14:05.373Z,18.33
2023-05-09T11:17:19.284Z,18.73
2023-05-09T11:24:18.408Z,18.85
2023-05-09T11:27:01.371Z,18.96
2023-05-09T11:34:31.445Z,17.49
2023-05-09T11:41:32.816Z,18.88
2023-05-09T11:52:24.035Z,19.05
2023-05-09T11:54:56.344Z,18.98
2023-05-09T11:57:31.013Z,19.38
2023-05-09T12:00:02.402Z,19.43
2023-05-09T12:03:40.186Z,19.57
2023-05-09T12:06:10.802Z,19.63
2023-05-09T12:08:45.480Z,19.88
2023-05-09T12:11:18.643Z,20.02
2023-05-09T12:14:01.814Z,19.92
2023-05-09T12:17:00.283Z,19.49
2023-05-09T12:24:02.812Z,19.67
2023-05-09T12:35:27.222Z,19.60
2023-05-09T12:38:26.248Z,19.75
2023-05-09T12:43:56.544Z,19.47
2023-05-09T12:46:27.086Z,19.40
2023-05-09T12:49:05.484Z,19.27
2023-05-09T12:56:04.830Z,19.75
2023-05-09T12:59:40.572Z,19.23
2023-05-09T13:02:28.046Z,18.65
2023-05-09T13:05:11.050Z,18.68
2023-05-09T13:07:42.993Z,18.17
2023-05-09T13:15:36.844Z,17.97
2023-05-09T13:18:08.687Z,18.02
2023-05-09T13:20:44.229Z,18.27
2023-05-09T13:23:17.541Z,18.62
2023-05-09T13:25:46.864Z,18.89
2023-05-09T13:29:27.608Z,19.00
2023-05-09T13:33:24.089Z,19.49
2023-05-09T13:36:20.640Z,18.81
2023-05-09T13:44:22.805Z,18.04
2023-05-09T13:51:23.880Z,18.67
2023-05-09T13:59:05.194Z,17.89
2023-05-09T14:02:01.580Z,17.71
2023-05-09T14:04:40.601Z,17.99
2023-05-09T14:07:12.202Z,18.48
2023-05-09T14:09:58.658Z,18.75
2023-05-09T14:12:44.479Z,18.99
2023-05-09T14:15:30.915Z,18.54
2023-05-09T14:18:52.847Z,17.96
2023-05-09T14:21:26.522Z,17.79
2023-05-09T14:23:58.439Z,18.03
2023-05-09T14:26:42.853Z,18.22
2023-05-09T14:29:13.660Z,18.69
2023-05-09T14:31:44.052Z,18.99
2023-05-09T14:42:47.753Z,18.67
2023-05-09T14:45:41.869Z,18.22
2023-05-09T14:48:13.830Z,18.00
2023-05-09T14:50:57.033Z,18.00
2023-05-09T14:58:16.255Z,18.87
2023-05-09T15:01:04.719Z,19.13
2023-05-09T15:03:39.419Z,19.00
2023-05-09T15:06:23.630Z,18.88
2023-05-09T15:08:55.617Z,18.92
2023-05-09T15:11:50.272Z,18.92
2023-05-09T15:15:18.157Z,18.45
2023-05-09T15:22:13.878Z,17.87
2023-05-09T15:24:52.211Z,17.96
2023-05-09T15:27:21.487Z,18.23
2023-05-09T15:30:06.113Z,18.48
2023-05-09T15:32:34.698Z,18.54
2023-05-09T15:39:31.687Z,18.84
2023-05-09T15:50:17.742Z,17.57
2023-05-09T15:57:15.101Z,17.20
2023-05-09T16:03:56.530Z,17.00
2023-05-09T16:06:30.382Z,17.07
2023-05-09T16:09:33.449Z,17.13
2023-05-09T16:12:04.733Z,17.27
2023-05-09T16:14:46.977Z,17.26
2023-05-09T16:17:16.474Z,17.27
2023-05-09T16:19:46.136Z,17.38
2023-05-09T16:26:43.929Z,17.54
2023-05-09T16:34:08.327Z,17.52
2023-05-09T16:37:42.155Z,17.45
2023-05-09T16:40:15.686Z,17.52
2023-05-09T16:47:03.691Z,17.47
2023-05-09T16:50:29.164Z,17.27
2023-05-09T17:05:57.883Z,16.53
2023-05-09T17:08:52.002Z,16.48
2023-05-09T17:11:37.671Z,16.44
2023-05-09T17:22:37.197Z,16.32
2023-05-09T17:29:42.086Z,16.18
2023-05-09T17:32:12.634Z,16.18
2023-05-09T17:35:08.816Z,16.11
2023-05-09T17:37:39.533Z,16.00
2023-05-09T17:44:33.802Z,15.86
2023-05-09T17:51:23.051Z,15.60
2023-05-09T17:58:21.043Z,15.34
2023-05-09T18:01:10.144Z,15.28
2023-05-09T18:08:09.297Z,15.05
2023-05-09T18:14:58.931Z,14.88
2023-05-09T18:21:46.762Z,14.55
2023-05-09T18:28:41.159Z,14.21
2023-05-09T18:40:00.907Z,13.92
2023-05-09T18:46:55.197Z,13.73
2023-05-09T18:53:43.048Z,13.40
2023-05-09T18:56:42.604Z,13.32
2023-05-09T19:03:25.499Z,13.25
2023-05-09T19:10:26.170Z,13.20
2023-05-09T19:28:53.995Z,12.84
2023-05-09T19:36:20.666Z,12.71
2023-05-09T19:39:53.200Z,12.71
2023-05-09T19:46:46.730Z,12.63
2023-05-09T19:53:41.495Z,12.48
2023-05-09T20:00:28.463Z,12.36
2023-05-09T20:07:24.643Z,12.26
2023-05-09T20:14:13.036Z,12.12
2023-05-09T20:17:02.354Z,12.05
2023-05-09T20:19:33.842Z,12.03
2023-05-09T20:22:09.690Z,12.02
2023-05-09T20:25:39.804Z,11.96
2023-05-09T20:32:30.526Z,11.82
2023-05-09T20:39:29.993Z,11.65
2023-05-09T20:46:25.229Z,11.65
2023-05-09T20:49:06.927Z,11.74
2023-05-09T20:56:06.976Z,11.82
2023-05-09T20:59:18.016Z,11.82
2023-05-09T21:02:19.065Z,11.82
2023-05-09T21:04:56.830Z,11.82
2023-05-09T21:07:27.122Z,11.77
2023-05-09T21:10:22.272Z,11.63
2023-05-09T21:14:02.503Z,11.53
2023-05-09T21:16:36.445Z,11.44
2023-05-09T21:19:11.004Z,11.37
2023-05-09T21:21:45.120Z,11.31
2023-05-09T21:24:21.831Z,11.37
2023-05-09T21:35:43.680Z,11.26
2023-05-09T21:38:26.154Z,11.31
2023-05-09T21:42:03.855Z,11.38
2023-05-09T21:45:27.065Z,11.36
2023-05-09T21:48:58.791Z,11.31
2023-05-09T21:51:29.728Z,11.37
2023-05-09T21:54:24.220Z,11.37
2023-05-09T21:57:43.750Z,11.41
2023-05-09T22:00:15.553Z,11.38
2023-05-09T22:03:01.992Z,11.37
2023-05-09T22:05:57.583Z,11.40
2023-05-09T22:08:47.246Z,11.34
2023-05-09T22:12:15.757Z,11.17
2023-05-09T22:14:55.854Z,11.12
2023-05-09T22:17:31.323Z,11.10
2023-05-09T22:20:56.843Z,11.12
2023-05-09T22:24:16.662Z,11.12
2023-05-09T22:31:10.732Z,11.27
2023-05-09T22:33:57.462Z,11.33
2023-05-09T22:40:56.132Z,11.37
2023-05-09T22:44:04.996Z,11.43
2023-05-09T22:47:35.323Z,11.53
2023-05-09T22:50:53.328Z,11.53
2023-05-09T22:53:47.978Z,11.71
2023-05-09T22:57:19.177Z,11.77
2023-05-09T22:59:50.417Z,11.86
2023-05-09T23:02:46.279Z,11.91
2023-05-09T23:05:39.816Z,11.98
2023-05-09T23:09:05.595Z,11.96
2023-05-09T23:12:34.687Z,11.93
2023-05-09T23:15:07.736Z,11.85
2023-05-09T23:18:12.427Z,11.75
2023-05-09T23:25:09.403Z,11.48
2023-05-09T23:27:40.797Z,11.36
2023-05-09T23:30:36.225Z,11.33
2023-05-09T23:33:13.907Z,11.36
2023-05-09T23:35:43.217Z,11.33
2023-05-09T23:43:04.864Z,11.54
2023-05-09T23:49:48.818Z,11.43
2023-05-09T23:53:09.486Z,11.17
